createdAt,value
2023-02-19T00:08:09.707Z,10.18
2023-02-19T00:18:17.539Z,9.54
2023-02-19T00:28:25.377Z,9.33
2023-02-19T00:38:33.310Z,9.94
2023-02-19T00:48:41.255Z,10.24
2023-02-19T00:58:49.012Z,10.37
2023-02-19T01:08:57.765Z,10.76
2023-02-19T01:19:05.518Z,10.29
2023-02-19T01:29:13.631Z,10.87
2023-02-19T01:39:21.490Z,11.1
2023-02-19T01:49:29.413Z,12.19
2023-02-19T01:59:38.269Z,12.01
2023-02-19T02:09:46.031Z,11.25
2023-02-19T02:19:53.802Z,11.37
2023-02-19T02:30:03.925Z,11.14
2023-02-19T02:40:02.752Z,11.57
2023-02-19T02:50:10.591Z,11.18
2023-02-19T03:00:18.450Z,11.86
2023-02-19T03:10:26.251Z,11.08
2023-02-19T03:20:34.063Z,11.01
2023-02-19T03:30:42.937Z,10.8
2023-02-19T03:40:50.789Z,11.48
2023-02-19T03:50:58.582Z,10.44
2023-02-19T04:01:06.477Z,10.19
2023-02-19T04:11:14.378Z,10.27
2023-02-19T04:21:21.834Z,10.38
2023-02-19T04:31:30.110Z,10.35
2023-02-19T04:41:37.842Z,10.96
2023-02-19T04:51:45.626Z,10.5
2023-02-19T05:01:53.556Z,9.87
2023-02-19T05:12:01.388Z,10.88
2023-02-19T05:22:09.340Z,9.82
2023-02-19T05:32:17.281Z,10.07
2023-02-19T05:42:25.060Z,10.05
2023-02-19T05:52:32.846Z,9.66
2023-02-19T06:02:40.738Z,9.91
2023-02-19T06:12:48.605Z,10.37
2023-02-19T06:22:56.525Z,9.92
2023-02-19T06:33:04.458Z,9.4
2023-02-19T06:43:12.385Z,10.54
2023-02-19T06:53:20.200Z,9.75
2023-02-19T07:03:28.033Z,9.53
2023-02-19T07:13:35.838Z,9.55
2023-02-19T07:23:45.267Z,8.94
2023-02-19T07:33:54.433Z,9.74
2023-02-19T07:44:02.359Z,9.41
2023-02-19T07:54:11.267Z,9.39
2023-02-19T08:04:19.153Z,9.03
2023-02-19T08:14:27.090Z,9.7
2023-02-19T08:24:34.881Z,9.17
2023-02-19T08:34:43.301Z,9.3
2023-02-19T08:44:51.117Z,8.99
2023-02-19T08:54:59.128Z,9.3
2023-02-19T09:05:07.271Z,9.02
2023-02-19T09:15:15.186Z,9.8
2023-02-19T09:25:22.999Z,9.56
2023-02-19T09:35:30.782Z,10.47
2023-02-19T09:45:38.628Z,10.14
2023-02-19T09:55:48.312Z,10.06
2023-02-19T10:05:56.301Z,9.77
2023-02-19T10:16:04.127Z,9.35
2023-02-19T10:26:11.927Z,8.76
2023-02-19T10:36:19.721Z,8.48
2023-02-19T10:46:27.677Z,8.88
2023-02-19T10:56:35.560Z,9.56
2023-02-19T11:06:43.069Z,9.25
2023-02-19T11:16:50.997Z,9.84
2023-02-19T11:26:59.883Z,9.2
2023-02-19T11:37:10.599Z,14.29
2023-02-19T11:47:08.479Z,10.45
2023-02-19T11:57:16.237Z,12.96
2023-02-19T12:07:24.247Z,12.51
2023-02-19T12:17:32.238Z,11.42
2023-02-19T12:27:41.255Z,12.38
2023-02-19T12:37:49.238Z,12.18
2023-02-19T12:47:57.121Z,11.98
2023-02-19T12:58:05.663Z,13.42
2023-02-19T13:08:16.426Z,13.7
2023-02-19T13:18:16.579Z,13.69
2023-02-19T13:28:14.392Z,12.46
2023-02-19T13:38:22.131Z,12.14
2023-02-19T13:48:29.996Z,12.94
2023-02-19T13:58:37.793Z,15.6
2023-02-19T14:08:45.663Z,19.03
2023-02-19T14:18:53.599Z,15.25
2023-02-19T14:29:01.497Z,12.51
2023-02-19T14:39:09.372Z,11.7
2023-02-19T14:49:17.219Z,11.16
2023-02-19T14:59:25.000Z,11.52
2023-02-19T15:09:32.863Z,11.78
2023-02-19T15:19:42.085Z,11.9
2023-02-19T15:29:51.345Z,11
2023-02-19T15:39:57.309Z,10.47
2023-02-19T15:50:05.614Z,9.74
2023-02-19T16:00:13.436Z,9.94
2023-02-19T16:10:21.319Z,8.61
2023-02-19T16:20:29.119Z,11.17
2023-02-19T16:30:37.113Z,10.53
2023-02-19T16:40:46.110Z,9.71
2023-02-19T16:50:53.949Z,8.98
2023-02-19T17:01:01.871Z,11.15
2023-02-19T17:11:10.862Z,10.37
2023-02-19T17:21:18.509Z,9.81
2023-02-19T17:31:26.469Z,9.83
2023-02-19T17:41:34.328Z,10.45
2023-02-19T17:51:42.173Z,8.74
2023-02-19T18:01:50.056Z,9.32
2023-02-19T18:11:58.038Z,10.78
2023-02-19T18:22:06.668Z,9.22
2023-02-19T18:32:13.449Z,11.8
2023-02-19T18:42:22.284Z,7.08
2023-02-19T18:52:31.772Z,10.11
2023-02-19T19:02:48.566Z,10.24
2023-02-19T19:12:54.196Z,10.09
2023-02-19T19:23:16.353Z,8.78
2023-02-19T19:32:53.720Z,8.42
2023-02-19T19:43:02.972Z,8.29
2023-02-19T20:03:05.117Z,12.68
2023-02-19T20:13:14.511Z,15.95
2023-02-19T20:23:29.305Z,11.21
2023-02-19T20:43:36.189Z,10.83
2023-02-19T20:53:43.520Z,13.5
2023-02-19T21:03:42.034Z,11.46
2023-02-19T21:14:00.085Z,12.33
2023-02-19T21:24:04.883Z,12.21
2023-02-19T21:34:10.684Z,13.46
2023-02-19T21:44:10.374Z,12.87
2023-02-19T21:54:19.573Z,15.89
2023-02-19T22:04:28.472Z,16.58
2023-02-19T22:14:37.397Z,16.72
2023-02-19T22:24:46.300Z,16.23
2023-02-19T22:34:54.424Z,16.66
2023-02-19T22:45:02.544Z,13.29
2023-02-19T22:55:10.874Z,13.9
2023-02-19T23:05:18.692Z,14.53
2023-02-19T23:15:26.577Z,14.52
2023-02-19T23:25:34.405Z,13.72
2023-02-19T23:35:42.381Z,14.34
2023-02-19T23:45:50.160Z,14.55
2023-02-19T23:55:58.041Z,13.99
